CheckWX is a tool to help pilots better visualize weather data.  It is not intended as a substitute for an official pre-flight weather briefing.

20:33:27 UTC

I69 METAR
Clermont County Airport
Batavia, Ohio, USA
Current

18 mins ago

KI69 222015Z AUTO 34014G19KT 10SM SCT060 SCT070 09/M03 A3001 RMK AO2 T00911035
Observed
Mar-22 @ 20:15 UTC
Wind
  • 340° at 14 KTS
  • Gusting to 19 KTS
Visibility
10 SM
Flight Rules
VFR
Cloud Levels
  • Scattered at 6,000' AGL
  • Scattered at 7,000' AGL
Temperature
C / 48°F
Dewpoint
-4°C / 25°F
Humidity
40%
Altimeter
30.01" Hg
Pressure
1016.22 hPa
Previous

38 mins ago

KI69 221955Z AUTO 32013G21KT 10SM BKN060 BKN070 09/M04 A3001 RMK AO2 T00881037
Observed
Mar-22 @ 19:55 UTC
Wind
  • 320° at 13 KTS
  • Gusting to 21 KTS
Visibility
10 SM
Flight Rules
VFR
Cloud Levels
  • Broken at 6,000' AGL
  • Broken at 7,000' AGL
Temperature
C / 48°F
Dewpoint
-4°C / 25°F
Humidity
40%
Altimeter
30.01" Hg
Pressure
1016.22 hPa
Previous

58 mins ago

KI69 221935Z AUTO 32013G21KT 300V360 10SM BKN060 10/M03 A3000 RMK AO2 T01041030
Observed
Mar-22 @ 19:35 UTC
Wind
  • 320° at 13 KTS
  • Gusting to 21 KTS
Visibility
10 SM
Flight Rules
VFR
Cloud Levels
  • Broken at 6,000' AGL
Temperature
10°C / 50°F
Dewpoint
-3°C / 27°F
Humidity
40%
Altimeter
30" Hg
Pressure
1015.92 hPa